Time;durP1;ratioP1;P1;durP2;ratioP2;P2;SDS_P1;SDS_P2;PMS_P1;PMS_P2;Temp;Humidity;BMP_temperature;BMP_pressure;BME280_temperature;BME280_humidity;BME280_pressure;Samples;Min_cycle;Max_cycle;Signal;HPM_P1;HPM_P2
2021/10/30 00:02:54;;;;;;;3.58;2.05;;;;;;;22.86;40.84;95681.50;5254660;23;20053;-65
2021/10/30 00:05:20;;;;;;;2.70;2.00;;;;;;;22.85;40.92;95669.09;5028909;28;20040;-65
2021/10/30 00:07:45;;;;;;;4.28;2.30;;;;;;;22.84;40.65;95673.06;5047324;28;20016;-65
2021/10/30 00:10:11;;;;;;;3.45;2.15;;;;;;;22.83;40.79;95672.31;5047447;28;20029;-65
2021/10/30 00:12:37;;;;;;;2.75;2.00;;;;;;;22.83;40.75;95677.03;5046543;28;20035;-63
2021/10/30 00:15:03;;;;;;;4.20;2.17;;;;;;;22.82;41.01;95670.09;5046183;28;20032;-63
2021/10/30 00:17:28;;;;;;;2.40;1.65;;;;;;;22.82;40.79;95670.09;5047184;28;20060;-63
2021/10/30 00:19:54;;;;;;;3.13;2.00;;;;;;;22.81;40.89;95672.06;5047264;28;20474;-63
2021/10/30 00:22:19;;;;;;;2.72;1.95;;;;;;;22.79;40.80;95671.06;5046705;28;20024;-63
2021/10/30 00:24:45;;;;;;;3.30;2.08;;;;;;;22.78;40.76;95664.13;5046869;28;20024;-63
2021/10/30 00:27:12;;;;;;;3.42;2.05;;;;;;;22.77;40.75;95659.94;5029314;28;20035;-63
2021/10/30 00:29:38;;;;;;;3.67;2.38;;;;;;;22.77;41.07;95665.38;5047097;28;20029;-63
2021/10/30 00:32:04;;;;;;;3.35;1.92;;;;;;;22.77;40.74;95654.47;5046538;28;20679;-63
2021/10/30 00:34:30;;;;;;;4.22;2.40;;;;;;;22.75;40.86;95654.22;5046846;28;20029;-63
2021/10/30 00:36:55;;;;;;;2.80;2.15;;;;;;;22.73;40.89;95649.25;5029112;28;20469;-63
2021/10/30 00:39:21;;;;;;;3.90;2.20;;;;;;;22.74;40.58;95653.47;5047258;28;20479;-63
2021/10/30 00:41:50;;;;;;;3.00;1.90;;;;;;;22.72;40.59;95655.19;5046372;28;20132;-63
2021/10/30 00:44:16;;;;;;;4.00;2.38;;;;;;;22.73;40.92;95645.78;5047085;28;20112;-63
2021/10/30 00:46:42;;;;;;;2.65;2.00;;;;;;;22.71;40.78;95648.28;5046812;28;20128;-63
2021/10/30 00:49:12;;;;;;;3.38;2.40;;;;;;;22.71;40.70;95649.00;5028720;28;20029;-63
2021/10/30 00:51:38;;;;;;;4.47;2.40;;;;;;;22.71;40.86;95648.28;5045933;28;20501;-63
2021/10/30 00:54:04;;;;;;;3.15;2.20;;;;;;;22.71;40.84;95648.28;5046450;28;20040;-63
2021/10/30 00:56:31;;;;;;;3.00;2.17;;;;;;;22.70;41.09;95641.31;5028120;28;20035;-63
2021/10/30 00:58:58;;;;;;;3.42;2.40;;;;;;;22.69;40.86;95645.28;5028426;28;20046;-63
2021/10/30 01:01:23;;;;;;;3.20;1.83;;;;;;;22.68;41.29;95649.25;5028353;28;20521;-63
2021/10/30 01:03:51;;;;;;;3.20;2.03;;;;;;;22.67;41.08;95647.75;5028287;28;20049;-63
2021/10/30 01:06:16;;;;;;;3.28;2.20;;;;;;;22.67;40.95;95650.47;5028503;28;20083;-63
2021/10/30 01:08:41;;;;;;;4.13;2.58;;;;;;;22.68;40.85;95643.81;5046406;28;20025;-63
2021/10/30 01:11:07;;;;;;;3.50;2.03;;;;;;;22.67;40.94;95642.31;5045889;28;20063;-63
2021/10/30 01:13:32;;;;;;;3.35;2.20;;;;;;;22.65;41.07;95639.34;5027600;28;20037;-63
2021/10/30 01:15:58;;;;;;;3.05;2.20;;;;;;;22.65;41.10;95639.34;5045911;28;20021;-63
2021/10/30 01:18:23;;;;;;;3.40;2.35;;;;;;;22.66;41.04;95647.00;5045881;28;20089;-63
2021/10/30 01:20:51;;;;;;;3.15;2.13;;;;;;;22.64;40.84;95643.28;5045667;28;20029;-63
2021/10/30 01:23:17;;;;;;;3.67;2.55;;;;;;;22.64;41.13;95633.13;5045418;28;20053;-63
2021/10/30 01:25:42;;;;;;;3.10;2.10;;;;;;;22.63;40.79;95636.34;5045913;28;20098;-63
2021/10/30 01:28:07;;;;;;;3.55;2.22;;;;;;;22.62;41.05;95634.88;5011446;28;20059;-63
2021/10/30 01:30:33;;;;;;;3.83;1.95;;;;;;;22.62;41.27;95623.97;5028018;28;20240;-63
2021/10/30 01:33:04;;;;;;;3.33;2.20;;;;;;;22.62;40.92;95634.88;5045242;28;20522;-63
2021/10/30 01:35:33;;;;;;;4.47;2.22;;;;;;;22.62;41.14;95634.88;5027714;28;20025;-63
2021/10/30 01:38:00;;;;;;;3.15;2.25;;;;;;;22.59;41.02;95635.84;5045410;28;20083;-63
2021/10/30 01:40:25;;;;;;;3.40;2.30;;;;;;;22.59;40.90;95635.84;5045563;28;20464;-63
2021/10/30 01:43:00;;;;;;;2.83;1.90;;;;;;;22.59;40.94;95630.41;5045094;28;20024;-64
2021/10/30 01:45:27;;;;;;;3.00;2.28;;;;;;;22.58;41.07;95634.34;5045465;28;20036;-64
2021/10/30 01:47:52;;;;;;;2.67;2.13;;;;;;;22.57;41.04;95633.63;5045303;28;20074;-64
2021/10/30 01:50:18;;;;;;;3.78;2.50;;;;;;;22.56;41.32;95636.81;5045341;28;20037;-63
2021/10/30 01:52:44;;;;;;;3.35;2.30;;;;;;;22.57;41.04;95627.41;5027029;28;20474;-63
2021/10/30 01:55:10;;;;;;;3.22;2.17;;;;;;;22.56;41.24;95632.13;5045179;28;20029;-64
2021/10/30 01:57:36;;;;;;;3.03;2.20;;;;;;;22.57;41.01;95627.41;5044999;28;20123;-64
2021/10/30 02:00:05;;;;;;;3.25;2.40;;;;;;;22.54;41.13;95636.56;5045360;28;20498;-63
2021/10/30 02:02:31;;;;;;;4.18;2.30;;;;;;;22.54;41.04;95628.38;5027066;28;20075;-63
2021/10/30 02:04:56;;;;;;;3.20;2.13;;;;;;;22.54;41.35;95639.28;5022963;28;20049;-63
2021/10/30 02:07:22;;;;;;;3.25;2.25;;;;;;;22.53;41.02;95626.91;5049291;28;20021;-63
2021/10/30 02:09:47;;;;;;;3.08;2.53;;;;;;;22.52;41.22;95630.84;5062683;28;20074;-63
2021/10/30 02:12:13;;;;;;;2.78;2.22;;;;;;;22.53;41.11;95632.34;5064061;28;20368;-63
2021/10/30 02:14:38;;;;;;;3.05;2.40;;;;;;;22.51;41.11;95629.34;5064672;28;20027;-63
2021/10/30 02:17:04;;;;;;;3.22;2.30;;;;;;;22.52;41.13;95625.41;5064750;28;20032;-63
2021/10/30 02:19:29;;;;;;;4.60;2.47;;;;;;;22.50;41.34;95636.06;5065303;28;20023;-63
2021/10/30 02:21:55;;;;;;;2.67;2.28;;;;;;;22.50;40.66;95628.63;5058725;28;20414;-63
2021/10/30 02:24:21;;;;;;;3.33;2.53;;;;;;;22.50;41.21;95627.88;5065376;28;20012;-63
2021/10/30 02:26:46;;;;;;;3.20;2.40;;;;;;;22.49;41.13;95637.28;5065330;28;20021;-63
2021/10/30 02:29:12;;;;;;;2.80;2.30;;;;;;;22.50;41.34;95633.34;5065483;28;20024;-63
2021/10/30 02:31:38;;;;;;;4.03;2.47;;;;;;;22.48;41.15;95641.97;5064531;28;20426;-63
2021/10/30 02:34:03;;;;;;;3.72;2.33;;;;;;;22.48;41.00;95638.50;5064633;28;20035;-63
2021/10/30 02:36:28;;;;;;;2.92;2.10;;;;;;;22.46;41.25;95632.81;5047126;28;20036;-62
2021/10/30 02:38:54;;;;;;;2.75;2.03;;;;;;;22.46;41.29;95638.25;5064647;28;20031;-63
2021/10/30 02:41:19;;;;;;;3.83;2.40;;;;;;;22.45;41.21;95642.19;5047602;28;20043;-62
2021/10/30 02:43:45;;;;;;;3.13;2.22;;;;;;;22.45;41.02;95636.75;5064520;28;20016;-63
2021/10/30 02:46:10;;;;;;;3.60;2.42;;;;;;;22.45;41.22;95639.47;5066207;28;20027;-63
2021/10/30 02:48:36;;;;;;;4.47;2.50;;;;;;;22.45;41.05;95642.19;5064633;28;20028;-63
2021/10/30 02:51:01;;;;;;;4.25;2.35;;;;;;;22.46;41.16;95638.25;5062627;28;20032;-63
2021/10/30 02:53:26;;;;;;;2.80;2.10;;;;;;;22.46;41.20;95635.53;5063448;28;20111;-63
2021/10/30 02:55:52;;;;;;;3.42;2.40;;;;;;;22.45;41.15;95642.19;5064063;28;20036;-63
2021/10/30 02:58:18;;;;;;;3.67;2.53;;;;;;;22.45;41.07;95636.75;5063693;28;20035;-63
2021/10/30 03:00:43;;;;;;;3.83;2.42;;;;;;;22.45;41.13;95644.91;5064194;28;20060;-64
2021/10/30 03:03:09;;;;;;;3.00;2.30;;;;;;;22.44;41.20;95640.72;5059583;28;20462;-63
2021/10/30 03:05:34;;;;;;;3.05;2.50;;;;;;;22.42;41.04;95643.19;5063543;28;20825;-63
2021/10/30 03:08:00;;;;;;;3.17;2.58;;;;;;;22.44;41.38;95640.72;5064214;28;20028;-63
2021/10/30 03:10:26;;;;;;;3.67;2.50;;;;;;;22.43;41.22;95639.22;5063840;28;20040;-64
2021/10/30 03:12:51;;;;;;;3.60;2.60;;;;;;;22.41;41.23;95634.28;5063234;28;20490;-64
2021/10/30 03:15:17;;;;;;;3.00;2.63;;;;;;;22.41;41.31;95636.25;5063874;28;20433;-63
2021/10/30 03:17:43;;;;;;;3.47;2.47;;;;;;;22.41;41.53;95636.25;5064234;28;20310;-63
2021/10/30 03:20:09;;;;;;;3.55;2.47;;;;;;;22.40;41.27;95640.19;5045952;28;20056;-63
2021/10/30 03:22:35;;;;;;;3.10;2.72;;;;;;;22.40;41.38;95634.03;5063434;28;20028;-63
2021/10/30 03:25:00;;;;;;;4.85;3.20;;;;;;;22.40;41.46;95645.66;5046249;28;20040;-63
2021/10/30 03:27:27;;;;;;;4.53;2.88;;;;;;;22.40;41.52;95637.47;5064435;28;20536;-63
2021/10/30 03:29:53;;;;;;;3.33;2.60;;;;;;;22.39;41.46;95638.72;5046458;28;20062;-63
2021/10/30 03:32:18;;;;;;;3.55;2.78;;;;;;;22.38;41.46;95639.94;5063763;28;20036;-63
2021/10/30 03:34:44;;;;;;;3.97;2.95;;;;;;;22.37;41.37;95635.00;5063976;28;20028;-64
2021/10/30 03:37:09;;;;;;;3.78;2.55;;;;;;;22.38;41.40;95645.41;5064326;28;20029;-63
2021/10/30 03:39:36;;;;;;;3.20;2.72;;;;;;;22.38;41.40;95647.38;5064052;28;20330;-63
2021/10/30 03:42:02;;;;;;;3.75;2.75;;;;;;;22.36;41.70;95638.94;5058435;28;20021;-63
2021/10/30 03:44:27;;;;;;;4.15;2.50;;;;;;;22.37;41.33;95635.72;5063531;28;20848;-63
2021/10/30 03:46:52;;;;;;;3.45;2.63;;;;;;;22.36;41.40;95639.72;5063764;28;20070;-63
2021/10/30 03:49:18;;;;;;;3.10;2.50;;;;;;;22.36;41.40;95645.16;5064052;28;20037;-63
2021/10/30 03:51:44;;;;;;;4.03;2.75;;;;;;;22.35;41.20;95643.66;5066135;28;20028;-63
2021/10/30 03:54:10;;;;;;;4.07;2.53;;;;;;;22.35;41.46;95649.09;5063123;28;20025;-63
2021/10/30 03:56:35;;;;;;;4.28;3.00;;;;;;;22.35;41.36;95643.66;5067292;28;20028;-63
2021/10/30 03:59:01;;;;;;;3.90;2.78;;;;;;;22.35;41.44;95659.25;5067151;28;20020;-63
2021/10/30 04:01:26;;;;;;;3.90;3.10;;;;;;;22.33;41.52;95646.13;5066981;28;20028;-63
2021/10/30 04:03:51;;;;;;;4.03;3.10;;;;;;;22.33;41.50;95651.56;5067310;28;20052;-63
2021/10/30 04:06:17;;;;;;;3.20;2.55;;;;;;;22.33;41.56;95656.25;5066821;28;20032;-63
2021/10/30 04:08:44;;;;;;;3.58;2.80;;;;;;;22.32;41.38;95650.06;5067192;28;20036;-63
2021/10/30 04:11:09;;;;;;;3.53;2.90;;;;;;;22.33;41.30;95648.84;5067075;28;20064;-63
2021/10/30 04:13:35;;;;;;;4.05;2.90;;;;;;;22.32;41.28;95644.63;5066947;28;20419;-63
2021/10/30 04:16:00;;;;;;;3.78;2.75;;;;;;;22.33;41.29;95646.13;5067119;28;20531;-63
2021/10/30 04:18:26;;;;;;;4.25;2.88;;;;;;;22.30;41.39;95641.66;5066994;28;20021;-63
2021/10/30 04:20:51;;;;;;;3.53;2.83;;;;;;;22.31;41.30;95640.41;5066986;28;20032;-63
2021/10/30 04:23:17;;;;;;;4.43;3.30;;;;;;;22.30;41.43;95641.66;5066626;28;20032;-64
2021/10/30 04:25:42;;;;;;;3.50;2.75;;;;;;;22.30;41.46;95636.22;5067145;28;20185;-63
2021/10/30 04:28:08;;;;;;;3.78;3.00;;;;;;;22.30;41.53;95636.22;5066944;28;20081;-63
2021/10/30 04:30:34;;;;;;;3.80;3.00;;;;;;;22.29;41.48;95634.72;5066946;28;20028;-63
2021/10/30 04:33:00;;;;;;;3.55;2.67;;;;;;;22.27;41.55;95631.75;5066774;28;20443;-63
2021/10/30 04:35:25;;;;;;;3.80;3.38;;;;;;;22.28;41.74;95638.66;5066365;28;20498;-64
2021/10/30 04:37:51;;;;;;;3.20;2.45;;;;;;;22.27;41.67;95631.75;5066711;28;20024;-63
2021/10/30 04:40:17;;;;;;;3.85;3.20;;;;;;;22.26;41.45;95635.69;5066736;28;20451;-63
2021/10/30 04:42:42;;;;;;;4.60;3.10;;;;;;;22.26;41.47;95638.41;5066555;28;20044;-63
2021/10/30 04:45:08;;;;;;;3.83;3.20;;;;;;;22.26;41.40;95641.13;5066146;28;20036;-63
2021/10/30 04:47:33;;;;;;;4.65;3.42;;;;;;;22.25;41.51;95639.63;5066292;28;20043;-64
2021/10/30 04:49:59;;;;;;;3.95;2.90;;;;;;;22.24;41.63;95638.16;5065089;28;20028;-63
2021/10/30 04:52:24;;;;;;;4.88;3.60;;;;;;;22.23;41.49;95631.22;5066166;28;20036;-63
2021/10/30 04:54:50;;;;;;;3.63;2.92;;;;;;;22.23;41.40;95631.22;5066103;28;20501;-63
2021/10/30 04:57:15;;;;;;;4.00;3.20;;;;;;;22.24;41.55;95638.16;5066083;28;20663;-63
2021/10/30 04:59:40;;;;;;;3.80;3.20;;;;;;;22.24;41.72;95638.16;5066395;28;20024;-63
2021/10/30 05:02:06;;;;;;;3.30;2.88;;;;;;;22.24;41.68;95637.41;5065225;28;20530;-63
2021/10/30 05:04:31;;;;;;;5.85;3.03;;;;;;;22.22;41.67;95640.59;5066024;28;20435;-63
2021/10/30 05:06:57;;;;;;;3.92;3.03;;;;;;;22.21;41.72;95633.69;5066138;28;20028;-63
2021/10/30 05:09:23;;;;;;;4.15;3.22;;;;;;;22.22;41.75;95646.03;5066272;28;20039;-63
2021/10/30 05:11:49;;;;;;;4.68;3.15;;;;;;;22.22;41.59;95640.59;5065644;28;20047;-63
2021/10/30 05:14:14;;;;;;;4.15;3.08;;;;;;;22.22;41.50;95645.31;5065693;28;20024;-63
2021/10/30 05:16:40;;;;;;;3.40;2.78;;;;;;;22.19;41.76;95644.25;5065967;28;20032;-63
2021/10/30 05:19:05;;;;;;;4.43;3.42;;;;;;;22.23;41.62;95639.38;5065323;28;20017;-63
2021/10/30 05:21:31;;;;;;;4.38;3.17;;;;;;;22.30;41.63;95652.53;5065370;28;20039;-63
2021/10/30 05:23:56;;;;;;;6.57;2.95;;;;;;;22.31;41.90;95637.69;5065365;28;20020;-63
2021/10/30 05:26:23;;;;;;;4.60;3.03;;;;;;;22.36;41.86;95636.22;5027539;28;20044;-63
2021/10/30 05:28:48;;;;;;;3.88;2.97;;;;;;;22.42;41.71;95643.19;5045253;28;20025;-63
2021/10/30 05:31:13;;;;;;;4.13;3.00;;;;;;;22.50;42.10;95641.50;5044980;28;20035;-66
2021/10/30 05:33:39;;;;;;;4.80;3.22;;;;;;;22.56;42.01;95647.72;5044281;28;20462;-66
2021/10/30 05:36:06;;;;;;;3.70;2.67;;;;;;;22.65;41.71;95639.34;5044488;28;20032;-67
2021/10/30 05:38:31;;;;;;;3.67;3.00;;;;;;;22.73;41.78;95640.34;5037941;28;20028;-67
2021/10/30 05:40:57;;;;;;;3.70;3.03;;;;;;;22.83;41.72;95639.66;5045411;28;20528;-65
2021/10/30 05:43:22;;;;;;;4.72;2.88;;;;;;;22.95;41.67;95647.38;5044335;28;20057;-64
2021/10/30 05:45:47;;;;;;;3.28;2.70;;;;;;;23.08;41.23;95639.50;5044910;28;20033;-64
2021/10/30 05:48:14;;;;;;;4.30;3.10;;;;;;;23.19;41.20;95647.69;5044227;28;20028;-64
2021/10/30 05:50:40;;;;;;;5.68;3.35;;;;;;;23.33;40.90;95638.53;5043424;28;20028;-64
2021/10/30 05:53:07;;;;;;;4.13;3.00;;;;;;;23.46;40.60;95644.25;5047968;28;20525;-65
2021/10/30 05:55:33;;;;;;;4.75;3.33;;;;;;;23.56;40.50;95645.53;5043084;28;20451;-66
2021/10/30 05:57:58;;;;;;;3.53;2.60;;;;;;;23.69;40.13;95648.50;5043325;28;20035;-64
2021/10/30 06:00:23;;;;;;;4.28;3.00;;;;;;;23.83;40.05;95650.28;5040889;28;20040;-64
2021/10/30 06:02:49;;;;;;;3.78;2.88;;;;;;;23.91;39.54;95644.53;5045614;28;20041;-64
2021/10/30 06:05:14;;;;;;;4.13;3.17;;;;;;;24.03;39.52;95645.28;5043402;28;20032;-64
2021/10/30 06:07:40;;;;;;;3.40;2.75;;;;;;;24.08;39.89;95642.56;5024591;28;20024;-64
2021/10/30 06:10:06;;;;;;;5.00;3.08;;;;;;;24.27;39.36;95643.50;5040605;28;20688;-64
2021/10/30 06:12:33;;;;;;;4.18;2.90;;;;;;;24.32;38.78;95642.75;5044126;28;20025;-63
2021/10/30 06:14:59;;;;;;;4.60;3.05;;;;;;;24.37;38.57;95637.28;5040427;28;20089;-63
2021/10/30 06:17:24;;;;;;;4.35;3.30;;;;;;;24.46;38.51;95650.66;5042910;28;20025;-64
2021/10/30 06:19:50;;;;;;;4.05;2.90;;;;;;;24.59;38.78;95644.69;5043189;28;20033;-65
2021/10/30 06:22:16;;;;;;;4.05;2.80;;;;;;;24.71;37.97;95648.84;5023554;28;20576;-67
2021/10/30 06:24:41;;;;;;;4.20;3.40;;;;;;;24.83;37.91;95649.03;5063919;28;20127;-63
2021/10/30 06:27:07;;;;;;;4.60;3.42;;;;;;;24.89;38.00;95649.03;5055512;28;20486;-64
2021/10/30 06:29:33;;;;;;;3.97;3.17;;;;;;;24.90;37.65;95651.25;5058560;28;20032;-63
2021/10/30 06:31:59;;;;;;;4.15;2.85;;;;;;;25.00;37.58;95643.53;5063106;28;20031;-64
2021/10/30 06:34:25;;;;;;;4.40;3.40;;;;;;;25.03;37.62;95651.47;5063228;28;20411;-64
2021/10/30 06:36:51;;;;;;;4.28;3.03;;;;;;;25.08;37.28;95650.72;5063583;28;20028;-63
2021/10/30 06:39:16;;;;;;;3.45;3.08;;;;;;;25.15;37.47;95655.63;5063869;28;20024;-63
2021/10/30 06:41:42;;;;;;;4.68;2.92;;;;;;;25.20;37.40;95649.41;5038622;28;20086;-63
2021/10/30 06:44:07;;;;;;;5.47;2.97;;;;;;;25.30;37.16;95650.56;5058795;28;20036;-65
2021/10/30 06:46:33;;;;;;;4.18;3.28;;;;;;;25.27;37.45;95662.50;5064214;28;20613;-63
2021/10/30 06:48:58;;;;;;;4.13;3.10;;;;;;;25.37;37.09;95666.44;5063525;28;20020;-64
2021/10/30 06:51:24;;;;;;;4.70;3.25;;;;;;;25.43;36.79;95659.69;5027846;28;20025;-66
2021/10/30 06:53:50;;;;;;;5.07;3.42;;;;;;;25.50;36.73;95658.38;5062665;28;20529;-65
2021/10/30 06:56:16;;;;;;;3.95;3.38;;;;;;;25.51;36.87;95659.88;5043136;28;20079;-65
2021/10/30 06:58:41;;;;;;;3.90;3.08;;;;;;;25.57;36.69;95663.31;5037868;28;20029;-65
2021/10/30 07:01:07;;;;;;;5.07;3.67;;;;;;;25.64;36.46;95657.31;5058851;28;20783;-64
2021/10/30 07:03:33;;;;;;;4.60;3.50;;;;;;;25.64;36.72;95663.53;4990389;28;20540;-64
2021/10/30 07:05:58;;;;;;;4.13;3.55;;;;;;;25.64;36.71;95657.31;5058902;28;20263;-65
2021/10/30 07:08:23;;;;;;;4.63;3.10;;;;;;;25.69;36.51;95659.28;5061112;28;20017;-64
2021/10/30 07:10:49;;;;;;;5.72;3.67;;;;;;;25.74;36.24;95661.22;5043067;28;20017;-64
2021/10/30 07:13:16;;;;;;;5.53;3.78;;;;;;;25.78;36.24;95662.44;5043363;28;20082;-64
2021/10/30 07:15:41;;;;;;;4.57;3.60;;;;;;;25.75;36.32;95662.72;5058678;28;20139;-63
2021/10/30 07:18:07;;;;;;;4.25;3.28;;;;;;;25.87;36.00;95653.91;5060404;28;20626;-64
2021/10/30 07:20:32;;;;;;;5.95;3.50;;;;;;;25.89;36.05;95654.88;5059724;28;20383;-64
2021/10/30 07:22:58;;;;;;;4.32;3.33;;;;;;;25.92;36.04;95651.13;5061211;28;20016;-64
2021/10/30 07:25:23;;;;;;;3.95;3.30;;;;;;;25.93;36.09;95646.38;5045510;28;20741;-64
2021/10/30 07:27:49;;;;;;;4.43;3.20;;;;;;;25.94;35.71;95645.88;5065836;28;20027;-64
2021/10/30 07:30:16;;;;;;;4.90;3.35;;;;;;;25.90;36.10;95645.44;5063945;28;20024;-64
2021/10/30 07:32:41;;;;;;;4.43;3.65;;;;;;;26.00;35.74;95641.09;5061540;28;20032;-64
2021/10/30 07:35:07;;;;;;;4.20;3.17;;;;;;;26.02;35.79;95649.56;5064247;28;20020;-63
2021/10/30 07:37:33;;;;;;;4.82;3.35;;;;;;;26.06;35.59;95641.78;5045520;28;20505;-63
2021/10/30 07:39:58;;;;;;;4.97;3.38;;;;;;;26.11;35.75;95643.72;5063435;28;20069;-64
2021/10/30 07:42:24;;;;;;;4.70;3.28;;;;;;;26.07;35.68;95646.03;5043201;28;20087;-64
2021/10/30 07:44:49;;;;;;;4.55;3.63;;;;;;;26.14;35.36;95639.97;5056055;28;20027;-65
2021/10/30 07:47:15;;;;;;;4.35;3.45;;;;;;;26.14;35.36;95648.19;5053048;28;20028;-64
2021/10/30 07:49:40;;;;;;;5.05;3.63;;;;;;;26.14;35.33;95645.44;5062554;28;20029;-63
2021/10/30 07:52:07;;;;;;;4.50;3.47;;;;;;;26.23;35.08;95642.38;5052736;28;20057;-64
2021/10/30 07:54:33;;;;;;;4.10;3.35;;;;;;;26.28;35.02;95633.41;5052939;28;20029;-64
2021/10/30 07:56:59;;;;;;;4.60;3.63;;;;;;;26.33;35.25;95635.34;5063780;28;20021;-65
2021/10/30 07:59:24;;;;;;;5.15;3.47;;;;;;;26.32;35.09;95639.31;5064376;28;20017;-65
2021/10/30 08:01:50;;;;;;;5.07;3.28;;;;;;;26.38;35.01;95634.53;5049178;28;20028;-64
2021/10/30 08:04:17;;;;;;;4.07;3.33;;;;;;;26.39;35.01;95633.28;5064279;28;20048;-65
2021/10/30 08:06:43;;;;;;;4.95;3.45;;;;;;;26.35;35.05;95632.81;5065446;28;20063;-65
2021/10/30 08:09:08;;;;;;;4.25;3.20;;;;;;;26.45;34.66;95631.22;5062417;28;20541;-64
2021/10/30 08:11:33;;;;;;;4.85;3.72;;;;;;;26.40;35.09;95629.28;5054361;28;20674;-66
2021/10/30 08:13:59;;;;;;;4.20;3.22;;;;;;;26.43;34.73;95622.78;5024329;28;20052;-66
2021/10/30 08:16:25;;;;;;;4.43;3.42;;;;;;;26.43;34.97;95622.78;5045921;28;20029;-65
2021/10/30 08:18:50;;;;;;;5.03;3.70;;;;;;;26.51;34.63;95618.22;5046139;28;20020;-65
2021/10/30 08:21:16;;;;;;;5.65;4.10;;;;;;;26.51;34.70;95634.66;5047264;28;20017;-65
2021/10/30 08:23:41;;;;;;;4.18;3.40;;;;;;;26.46;34.84;95624.50;5046901;28;20592;-66
2021/10/30 08:26:08;;;;;;;4.80;3.85;;;;;;;26.49;34.80;95620.72;5047125;28;20028;-63
2021/10/30 08:28:33;;;;;;;4.15;3.67;;;;;;;26.51;34.80;95624.41;5049182;28;20036;-63
2021/10/30 08:30:59;;;;;;;4.00;3.40;;;;;;;26.54;34.70;95617.19;5045367;28;20021;-64
2021/10/30 08:33:24;;;;;;;4.30;3.45;;;;;;;26.52;34.64;95622.44;5045410;28;20016;-66
2021/10/30 08:35:50;;;;;;;5.65;3.60;;;;;;;26.54;34.63;95628.88;5045831;28;20419;-65
2021/10/30 08:38:15;;;;;;;4.85;3.53;;;;;;;26.46;34.77;95621.75;5053432;28;20036;-64
2021/10/30 08:40:41;;;;;;;4.10;3.13;;;;;;;26.47;34.76;95612.28;5050334;28;20021;-65
2021/10/30 08:43:08;;;;;;;4.55;3.33;;;;;;;26.40;34.56;95612.88;5041962;28;20096;-64
2021/10/30 08:45:34;;;;;;;4.85;3.70;;;;;;;26.40;34.96;95613.59;5051061;28;20040;-64
2021/10/30 08:48:00;;;;;;;3.95;3.08;;;;;;;26.48;34.92;95608.28;5046271;28;20483;-65
2021/10/30 08:50:26;;;;;;;4.57;3.47;;;;;;;26.50;34.69;95600.28;5046193;28;20048;-66
2021/10/30 08:52:51;;;;;;;4.90;3.65;;;;;;;26.49;34.79;95605.03;5024906;28;20087;-65
2021/10/30 08:55:17;;;;;;;5.75;3.60;;;;;;;26.47;34.92;95596.59;5044486;28;20028;-66
2021/10/30 08:57:42;;;;;;;3.95;3.17;;;;;;;26.51;34.47;95588.06;5046269;28;20024;-66
2021/10/30 09:00:15;;;;;;;6.35;3.45;;;;;;;26.55;34.80;95596.75;5046538;28;20021;-64
2021/10/30 09:02:41;;;;;;;4.18;3.28;;;;;;;26.51;34.81;95590.81;5048777;28;20053;-65
2021/10/30 09:05:16;;;;;;;4.43;3.20;;;;;;;26.64;34.40;95590.91;5048119;28;20046;-64
2021/10/30 09:07:43;;;;;;;5.53;4.05;;;;;;;26.58;33.52;95584.75;5057352;28;20481;-65
2021/10/30 09:10:14;;;;;;;7.43;5.00;;;;;;;26.58;32.38;95582.75;5045925;28;20108;-65
2021/10/30 09:12:50;;;;;;;4.95;3.47;;;;;;;26.63;35.44;95581.22;5039557;28;20024;-65
2021/10/30 09:15:19;;;;;;;5.63;3.85;;;;;;;26.69;34.31;95579.13;5064894;28;20027;-64
2021/10/30 09:17:46;;;;;;;6.65;3.67;;;;;;;26.89;33.96;95584.88;5057194;28;20531;-69
2021/10/30 09:20:14;;;;;;;5.30;3.42;;;;;;;26.83;33.77;95573.97;5053190;28;20503;-64
2021/10/30 09:22:40;;;;;;;5.50;3.40;;;;;;;26.68;34.37;95574.91;5045734;28;20021;-64
2021/10/30 09:25:07;;;;;;;5.97;3.63;;;;;;;26.73;34.27;95571.38;5045670;28;20025;-64
2021/10/30 09:27:53;;;;;;;4.45;3.38;;;;;;;26.64;34.58;95566.25;5046074;28;20064;-64
2021/10/30 09:30:38;;;;;;;5.82;3.53;;;;;;;26.62;34.34;95574.22;5044097;28;20032;-64
2021/10/30 09:33:10;;;;;;;4.75;3.40;;;;;;;26.68;34.33;95572.16;5031534;28;20069;-64
2021/10/30 09:35:43;;;;;;;6.13;3.80;;;;;;;26.80;34.33;95558.56;5037743;28;20060;-65
2021/10/30 09:38:31;;;;;;;7.45;3.55;;;;;;;26.72;34.73;95556.19;5033937;28;20021;-64
2021/10/30 09:40:56;;;;;;;6.10;3.50;;;;;;;26.63;34.51;95548.31;5044378;28;20035;-65
2021/10/30 09:43:22;;;;;;;5.85;3.47;;;;;;;26.64;34.44;95560.78;5044553;28;20029;-65
2021/10/30 09:45:50;;;;;;;4.47;3.35;;;;;;;26.63;34.36;95548.31;5025752;28;20115;-64
2021/10/30 09:48:17;;;;;;;5.05;3.25;;;;;;;26.62;34.61;95546.84;5042042;28;20734;-64
2021/10/30 09:50:43;;;;;;;6.65;3.85;;;;;;;26.63;34.39;95543.56;5041919;28;20037;-64
2021/10/30 09:53:31;;;;;;;4.93;3.70;;;;;;;26.63;34.37;95543.56;5042571;28;20052;-65
2021/10/30 09:56:01;;;;;;;5.07;3.67;;;;;;;26.71;34.39;95532.78;5035384;28;20419;-66
2021/10/30 09:58:42;;;;;;;4.65;3.47;;;;;;;26.65;34.55;95535.59;5044943;28;20029;-65
2021/10/30 10:01:15;;;;;;;4.75;3.58;;;;;;;26.68;34.42;95533.81;5044757;28;20044;-65
2021/10/30 10:03:42;;;;;;;5.15;3.75;;;;;;;26.58;34.60;95519.00;5058095;28;20458;-65
2021/10/30 10:06:09;;;;;;;6.90;3.97;;;;;;;26.64;34.41;95522.41;5063404;28;20029;-64
2021/10/30 10:08:39;;;;;;;8.80;4.10;;;;;;;26.67;34.49;95519.38;5062847;28;20024;-65
2021/10/30 10:11:15;;;;;;;6.90;4.30;;;;;;;26.71;33.74;95510.84;5053284;28;20078;-65
2021/10/30 10:13:47;;;;;;;6.32;4.53;;;;;;;26.70;33.64;95521.06;5050694;28;20095;-64
2021/10/30 10:16:19;;;;;;;6.60;4.55;;;;;;;26.73;32.92;95511.09;5059654;28;20036;-65
2021/10/30 10:18:52;;;;;;;6.97;4.90;;;;;;;26.76;32.82;95510.06;5060552;28;20035;-65
2021/10/30 10:21:20;;;;;;;7.40;5.20;;;;;;;26.73;32.49;95513.81;5059742;28;20698;-66
2021/10/30 10:23:46;;;;;;;7.45;4.88;;;;;;;26.67;32.54;95504.94;5037553;28;20035;-65
2021/10/30 10:26:11;;;;;;;6.75;5.05;;;;;;;26.70;32.40;95498.44;5027859;28;20032;-67
2021/10/30 10:28:37;;;;;;;7.68;5.30;;;;;;;26.69;31.99;95496.94;5045184;28;20287;-64
2021/10/30 10:31:23;;;;;;;7.68;5.43;;;;;;;26.58;31.64;95497.09;5062842;28;20051;-65
2021/10/30 10:34:08;;;;;;;6.70;5.10;;;;;;;26.61;31.97;95496.06;5043558;28;20115;-65
2021/10/30 10:36:34;;;;;;;8.10;5.28;;;;;;;26.59;31.59;95488.34;5036103;28;20024;-67
2021/10/30 10:38:59;;;;;;;8.50;5.60;;;;;;;26.65;31.47;95480.03;5044147;28;20353;-66
2021/10/30 10:41:37;;;;;;;7.38;5.57;;;;;;;26.67;31.43;95483.75;5043612;28;20693;-67
2021/10/30 10:44:06;;;;;;;7.70;5.30;;;;;;;26.64;28.67;95481.31;5044209;28;20477;-65
2021/10/30 10:46:32;;;;;;;11.10;5.88;;;;;;;26.55;28.07;95476.22;5018813;28;20029;-64
2021/10/30 10:49:41;;;;;;;9.52;5.45;;;;;;;26.39;27.80;95474.44;5039071;28;20106;-65
2021/10/30 10:55:04;;;;;;;8.38;5.40;;;;;;;26.54;27.58;95471.97;5040926;28;20040;-65
2021/10/30 10:57:33;;;;;;;6.78;5.50;;;;;;;26.56;27.27;95453.78;5063168;28;20077;-65
2021/10/30 11:00:12;;;;;;;7.32;5.20;;;;;;;26.54;27.42;95463.78;5057026;28;20024;-63
2021/10/30 11:02:39;;;;;;;7.57;5.40;;;;;;;26.45;27.12;95455.91;5055401;28;20193;-64
2021/10/30 11:05:07;;;;;;;8.25;5.13;;;;;;;26.48;28.38;95458.34;5068506;28;20407;-65
2021/10/30 11:07:49;;;;;;;8.25;5.10;;;;;;;26.57;29.39;95451.78;5071135;28;20033;-65
2021/10/30 11:10:19;;;;;;;8.68;6.00;;;;;;;26.58;29.04;95448.50;5058177;28;20038;-67
2021/10/30 11:15:26;;;;;;;6.45;5.30;;;;;;;26.47;29.10;95453.41;5052856;28;20131;-65
2021/10/30 11:18:15;;;;;;;7.65;5.10;;;;;;;26.36;29.45;95448.06;5047716;28;20107;-66
2021/10/30 11:20:43;;;;;;;7.05;5.13;;;;;;;26.51;29.53;95443.63;5041074;28;20430;-67
2021/10/30 11:23:17;;;;;;;6.18;4.90;;;;;;;26.58;29.58;95436.81;5047668;28;20104;-67
2021/10/30 11:25:43;;;;;;;6.45;4.65;;;;;;;26.51;29.60;95431.94;5030064;28;20065;-65
2021/10/30 11:28:08;;;;;;;7.00;4.65;;;;;;;26.54;29.40;95433.63;5047845;28;20787;-66
2021/10/30 11:30:43;;;;;;;7.25;5.20;;;;;;;26.67;29.42;95433.69;5054089;28;20055;-65
2021/10/30 11:33:29;;;;;;;8.15;5.20;;;;;;;26.65;29.51;95430.72;5064258;28;20078;-66
2021/10/30 11:35:58;;;;;;;7.00;4.65;;;;;;;26.78;29.35;95424.03;5047601;28;20026;-68
2021/10/30 11:38:24;;;;;;;6.70;5.27;;;;;;;26.76;29.73;95418.34;5059016;28;20029;-65
2021/10/30 11:40:57;;;;;;;6.22;4.68;;;;;;;26.77;29.42;95428.03;5054565;28;20406;-66